Time;durP1;ratioP1;P1;durP2;ratioP2;P2;SDS_P1;SDS_P2;PMS_P1;PMS_P2;Temp;Humidity;BMP_temperature;BMP_pressure;BME280_temperature;BME280_humidity;BME280_pressure;Samples;Min_cycle;Max_cycle;Signal;HPM_P1;HPM_P2
2022/09/17 00:00:01;;;;;;;13.02;3.20;;;13.40;99.90;;;;;;5120121;27;20146;-81
2022/09/17 00:02:29;;;;;;;16.38;2.28;;;13.30;99.90;;;;;;5119809;27;20474;-85
2022/09/17 00:04:54;;;;;;;15.98;2.53;;;13.40;99.90;;;;;;5119790;27;20132;-85
2022/09/17 00:07:20;;;;;;;12.25;1.60;;;13.40;99.90;;;;;;5119346;27;20134;-84
2022/09/17 00:09:46;;;;;;;13.10;2.95;;;13.40;99.90;;;;;;5119662;27;20043;-87
2022/09/17 00:12:11;;;;;;;17.05;3.17;;;13.40;99.90;;;;;;5119815;27;20122;-85
2022/09/17 00:14:37;;;;;;;9.95;1.50;;;13.50;99.90;;;;;;5119872;27;20043;-86
2022/09/17 00:17:02;;;;;;;13.32;2.65;;;13.60;99.90;;;;;;5119879;27;20103;-84
2022/09/17 00:19:28;;;;;;;12.60;1.35;;;13.60;99.90;;;;;;5137554;27;20469;-83
2022/09/17 00:21:53;;;;;;;12.75;1.80;;;13.60;99.90;;;;;;5137711;27;20091;-85
2022/09/17 00:24:20;;;;;;;18.40;2.22;;;13.60;99.90;;;;;;5119315;27;20491;-85
2022/09/17 00:26:47;;;;;;;16.25;1.98;;;13.60;99.90;;;;;;5119219;27;20050;-89
2022/09/17 00:29:13;;;;;;;11.48;1.65;;;13.70;99.90;;;;;;5119608;27;20059;-85
2022/09/17 00:31:39;;;;;;;9.65;1.73;;;13.70;99.90;;;;;;5119246;27;20031;-84
2022/09/17 00:34:05;;;;;;;13.40;2.63;;;13.70;99.90;;;;;;5119188;27;20043;-87
2022/09/17 00:36:35;;;;;;;15.13;2.00;;;13.70;99.90;;;;;;5119303;27;20035;-86
2022/09/17 00:39:04;;;;;;;12.45;1.23;;;13.70;99.90;;;;;;5119013;27;20035;-84
2022/09/17 00:41:32;;;;;;;17.80;2.92;;;13.70;99.90;;;;;;5137527;27;20054;-87
2022/09/17 00:44:00;;;;;;;15.30;2.00;;;13.60;99.90;;;;;;5137478;27;20035;-87
2022/09/17 00:46:29;;;;;;;6.53;1.30;;;13.70;99.90;;;;;;5137319;27;20118;-85
2022/09/17 00:48:57;;;;;;;9.98;1.80;;;13.60;99.90;;;;;;5119005;27;20047;-87
2022/09/17 00:51:31;;;;;;;12.48;1.75;;;13.70;99.90;;;;;;5119007;27;20039;-85
2022/09/17 00:53:58;;;;;;;8.48;1.50;;;13.60;99.90;;;;;;5119071;27;20122;-85
2022/09/17 00:56:31;;;;;;;7.88;1.35;;;13.60;99.90;;;;;;5118302;27;20144;-84
2022/09/17 00:58:57;;;;;;;11.52;1.33;;;13.70;99.90;;;;;;5118833;27;20125;-89
2022/09/17 01:01:23;;;;;;;14.00;1.58;;;13.60;99.90;;;;;;5118804;27;20086;-85
2022/09/17 01:03:48;;;;;;;9.18;1.50;;;13.60;99.90;;;;;;5118791;27;20039;-88
2022/09/17 01:06:28;;;;;;;9.73;1.73;;;13.60;99.90;;;;;;5118578;27;20059;-87
2022/09/17 01:09:01;;;;;;;10.25;1.98;;;13.60;99.90;;;;;;5137001;27;20574;-83
2022/09/17 01:11:51;;;;;;;12.07;1.55;;;13.60;99.90;;;;;;5135932;27;20088;-87
2022/09/17 01:14:45;;;;;;;16.02;2.47;;;13.60;99.90;;;;;;5135910;27;20039;-88
2022/09/17 01:17:22;;;;;;;7.95;1.42;;;13.60;99.90;;;;;;5091778;27;20110;-85
2022/09/17 01:20:13;;;;;;;11.55;1.80;;;13.60;99.90;;;;;;5118630;27;20039;-87
2022/09/17 01:22:42;;;;;;;12.90;1.80;;;13.60;99.90;;;;;;5118284;27;20405;-88
2022/09/17 01:25:23;;;;;;;10.38;2.42;;;13.60;99.90;;;;;;5135526;27;20042;-87
2022/09/17 01:28:14;;;;;;;7.65;1.10;;;13.50;99.90;;;;;;5118458;27;20049;-89
2022/09/17 01:31:20;;;;;;;10.65;1.30;;;13.50;99.90;;;;;;5118293;27;20474;-86
2022/09/17 01:33:57;;;;;;;17.38;1.63;;;13.60;99.90;;;;;;5071474;27;20051;-86
2022/09/17 01:36:55;;;;;;;14.77;2.75;;;13.50;99.90;;;;;;5118054;27;20517;-86
2022/09/17 01:39:42;;;;;;;12.77;2.53;;;13.50;99.90;;;;;;5118120;27;20046;-89
2022/09/17 01:42:24;;;;;;;10.18;1.90;;;13.50;99.90;;;;;;5118162;27;20062;-87
2022/09/17 01:45:08;;;;;;;9.27;1.60;;;13.50;99.90;;;;;;5117925;27;20054;-90
2022/09/17 01:47:48;;;;;;;9.07;1.55;;;13.50;99.90;;;;;;5117723;27;20047;-87
2022/09/17 01:50:24;;;;;;;11.38;1.73;;;13.50;99.90;;;;;;5118005;27;20045;-87
2022/09/17 01:52:53;;;;;;;12.88;1.90;;;13.50;99.90;;;;;;5117865;27;20125;-88
2022/09/17 01:55:21;;;;;;;12.10;1.60;;;13.50;99.90;;;;;;5136357;27;20039;-90
2022/09/17 01:57:53;;;;;;;12.30;1.77;;;13.30;99.90;;;;;;5117523;27;20043;-87
2022/09/17 02:00:19;;;;;;;9.77;1.70;;;13.00;99.90;;;;;;5117726;27;20167;-85
2022/09/17 02:02:52;;;;;;;16.95;2.20;;;12.70;99.90;;;;;;5117562;27;20466;-86
2022/09/17 02:05:29;;;;;;;14.48;2.17;;;12.70;99.90;;;;;;5134729;27;20051;-83
2022/09/17 02:08:02;;;;;;;12.70;2.17;;;12.70;99.90;;;;;;5116361;27;20133;-84
2022/09/17 02:10:35;;;;;;;12.77;1.92;;;12.70;99.90;;;;;;5117508;27;20409;-83
2022/09/17 02:13:20;;;;;;;13.20;1.80;;;12.80;99.90;;;;;;5117480;27;20043;-84
2022/09/17 02:15:53;;;;;;;10.13;1.65;;;12.70;99.90;;;;;;5117193;27;20071;-85
2022/09/17 02:18:48;;;;;;;15.93;2.00;;;12.70;99.90;;;;;;5117458;27;20047;-86
2022/09/17 02:21:37;;;;;;;12.98;1.77;;;12.80;99.90;;;;;;5108127;27;20051;-87
2022/09/17 02:24:18;;;;;;;10.95;1.80;;;12.80;99.90;;;;;;5135726;27;20110;-85
2022/09/17 02:26:53;;;;;;;13.20;1.42;;;12.90;99.90;;;;;;5116750;27;20088;-87
2022/09/17 02:29:35;;;;;;;8.27;1.42;;;12.90;99.90;;;;;;5116937;27;20069;-88
2022/09/17 02:32:02;;;;;;;10.07;1.42;;;12.90;99.90;;;;;;5117205;27;20470;-86
2022/09/17 02:34:28;;;;;;;10.13;1.48;;;12.80;99.90;;;;;;5117162;27;20126;-86
2022/09/17 02:36:55;;;;;;;11.63;1.50;;;12.90;99.90;;;;;;5117087;27;20047;-85
2022/09/17 02:39:27;;;;;;;8.82;1.58;;;12.90;99.90;;;;;;5116903;27;20126;-85
2022/09/17 02:42:16;;;;;;;8.98;1.58;;;12.90;99.90;;;;;;5133921;27;20058;-85
2022/09/17 02:44:54;;;;;;;11.90;1.98;;;12.90;99.90;;;;;;5103227;27;20138;-90
2022/09/17 02:47:46;;;;;;;9.77;1.40;;;13.00;99.90;;;;;;5116745;27;20481;-85
2022/09/17 02:50:39;;;;;;;9.40;1.58;;;13.00;99.90;;;;;;5116584;27;20547;-87
2022/09/17 02:53:27;;;;;;;10.25;1.58;;;13.00;99.90;;;;;;5116594;27;20031;-88
2022/09/17 02:56:25;;;;;;;14.52;1.65;;;13.00;99.90;;;;;;5116858;27;20067;-88
2022/09/17 02:59:43;;;;;;;18.23;3.03;;;13.10;99.90;;;;;;5082330;28;20058;-86
2022/09/17 03:02:27;;;;;;;13.95;2.72;;;13.00;99.90;;;;;;5093181;27;20133;-83
2022/09/17 03:04:54;;;;;;;14.75;1.80;;;12.80;99.90;;;;;;5116564;28;20035;-83
2022/09/17 03:07:22;;;;;;;12.88;2.35;;;12.60;99.90;;;;;;5116134;28;20062;-83
2022/09/17 03:09:48;;;;;;;11.10;1.50;;;12.50;99.90;;;;;;5116603;28;20058;-84
2022/09/17 03:12:14;;;;;;;14.93;1.85;;;12.50;99.90;;;;;;5116594;27;20474;-87
2022/09/17 03:14:39;;;;;;;14.23;1.85;;;12.40;99.90;;;;;;5116463;28;20046;-83
2022/09/17 03:17:05;;;;;;;13.98;1.88;;;12.40;99.90;;;;;;5116465;28;20393;-83
2022/09/17 03:19:31;;;;;;;8.93;1.10;;;12.50;99.90;;;;;;5134517;27;20050;-84
2022/09/17 03:21:57;;;;;;;14.00;1.92;;;12.50;99.90;;;;;;5116151;28;20238;-86
2022/09/17 03:24:22;;;;;;;13.98;2.22;;;12.40;99.90;;;;;;5133389;28;20485;-86
2022/09/17 03:26:49;;;;;;;18.95;2.85;;;12.40;99.90;;;;;;5116203;28;20043;-85
2022/09/17 03:29:15;;;;;;;15.80;2.35;;;12.40;99.90;;;;;;5116234;28;20121;-86
2022/09/17 03:31:47;;;;;;;12.52;2.80;;;12.40;99.90;;;;;;5116027;28;20054;-87
2022/09/17 03:34:13;;;;;;;12.60;2.20;;;12.50;99.90;;;;;;5116446;28;20050;-84
2022/09/17 03:36:38;;;;;;;13.02;1.50;;;12.50;99.90;;;;;;5133243;28;20039;-89
2022/09/17 03:39:04;;;;;;;8.60;2.20;;;12.50;99.90;;;;;;5116097;28;20043;-84
2022/09/17 03:41:32;;;;;;;6.85;1.98;;;12.50;99.90;;;;;;5134429;28;20043;-86
2022/09/17 03:43:58;;;;;;;12.68;1.50;;;12.50;99.90;;;;;;5115864;28;20107;-85
2022/09/17 03:46:24;;;;;;;6.43;1.10;;;12.60;99.90;;;;;;5115988;28;20057;-86
2022/09/17 03:48:49;;;;;;;9.50;1.60;;;12.60;99.90;;;;;;5116311;28;20040;-84
2022/09/17 03:51:15;;;;;;;8.43;1.23;;;12.60;99.90;;;;;;5115950;28;20398;-88
2022/09/17 03:53:43;;;;;;;16.30;2.78;;;12.60;99.90;;;;;;5115836;28;20039;-82
2022/09/17 03:56:09;;;;;;;8.63;1.55;;;12.60;99.90;;;;;;5115259;28;20063;-83
2022/09/17 03:58:35;;;;;;;10.43;1.73;;;12.60;99.90;;;;;;5133202;28;20126;-85
2022/09/17 04:01:03;;;;;;;8.13;1.42;;;12.60;99.90;;;;;;5115783;28;20047;-86
2022/09/17 04:03:29;;;;;;;11.90;1.63;;;12.70;99.90;;;;;;5115856;28;20102;-85
2022/09/17 04:05:55;;;;;;;11.67;1.50;;;12.70;99.90;;;;;;5115473;28;20062;-92
2022/09/17 04:08:21;;;;;;;11.20;1.80;;;12.60;99.90;;;;;;5134228;28;20481;-84
2022/09/17 04:10:47;;;;;;;10.90;1.50;;;12.70;99.90;;;;;;5116026;28;20051;-88
2022/09/17 04:13:14;;;;;;;6.80;1.73;;;12.70;99.90;;;;;;5115789;28;20477;-87
2022/09/17 04:15:40;;;;;;;5.50;0.68;;;12.70;99.90;;;;;;5115657;28;20059;-87
2022/09/17 04:18:15;;;;;;;11.32;1.50;;;12.80;99.90;;;;;;5115642;28;20080;-83
2022/09/17 04:20:41;;;;;;;10.82;1.75;;;12.80;99.90;;;;;;5115975;28;20043;-85
2022/09/17 04:23:10;;;;;;;7.65;1.05;;;12.80;99.90;;;;;;5115643;28;20059;-87
2022/09/17 04:25:36;;;;;;;8.63;1.63;;;12.80;99.90;;;;;;5115728;28;20047;-85
2022/09/17 04:28:02;;;;;;;10.63;1.48;;;12.80;99.90;;;;;;5115472;28;20482;-87
2022/09/17 04:30:28;;;;;;;8.80;1.40;;;12.80;99.90;;;;;;5116956;27;20126;-88
2022/09/17 04:32:54;;;;;;;8.27;1.90;;;12.80;99.90;;;;;;5119121;27;20050;-87
2022/09/17 04:35:19;;;;;;;9.65;1.40;;;12.80;99.90;;;;;;5119549;27;20564;-87
2022/09/17 04:37:57;;;;;;;8.90;1.10;;;12.80;99.90;;;;;;5119042;27;20401;-87
2022/09/17 04:40:24;;;;;;;13.35;2.13;;;12.80;99.90;;;;;;5119296;27;20101;-85
2022/09/17 04:43:02;;;;;;;8.75;1.00;;;12.80;99.90;;;;;;5137596;27;20043;-85
2022/09/17 04:45:32;;;;;;;12.77;1.35;;;12.80;99.90;;;;;;5137523;27;20071;-89
2022/09/17 04:47:57;;;;;;;10.70;1.63;;;12.90;99.90;;;;;;5137415;27;20055;-88
2022/09/17 04:50:23;;;;;;;5.20;1.20;;;12.90;99.90;;;;;;5137318;27;20067;-85
2022/09/17 04:52:49;;;;;;;8.38;2.55;;;12.90;99.90;;;;;;5137128;27;20130;-87
2022/09/17 04:55:15;;;;;;;15.32;2.05;;;12.90;99.90;;;;;;5135890;27;20051;-86
2022/09/17 04:57:48;;;;;;;13.38;1.80;;;12.90;99.90;;;;;;5137285;27;20098;-87
2022/09/17 05:00:16;;;;;;;13.65;1.92;;;13.00;99.90;;;;;;5118711;27;20443;-85
2022/09/17 05:02:46;;;;;;;11.63;1.65;;;13.00;99.90;;;;;;5137138;27;20078;-86
2022/09/17 05:05:13;;;;;;;9.55;1.40;;;13.00;99.90;;;;;;5119289;27;20070;-87
2022/09/17 05:07:39;;;;;;;11.38;1.35;;;13.00;99.90;;;;;;5118466;27;20547;-90
2022/09/17 05:10:06;;;;;;;8.43;1.75;;;12.90;99.90;;;;;;5118634;27;20049;-90
2022/09/17 05:12:31;;;;;;;12.45;1.63;;;12.90;99.90;;;;;;5118648;27;20039;-86
2022/09/17 05:14:57;;;;;;;9.88;1.33;;;12.90;99.90;;;;;;5118348;27;20032;-88
2022/09/17 05:17:23;;;;;;;9.55;2.15;;;13.00;99.90;;;;;;5135338;27;20050;-86
2022/09/17 05:19:48;;;;;;;18.17;2.17;;;12.90;99.90;;;;;;5118071;27;20529;-87
2022/09/17 05:22:14;;;;;;;10.85;1.67;;;12.80;99.90;;;;;;5118292;27;20461;-86
2022/09/17 05:24:40;;;;;;;20.10;3.35;;;12.70;99.90;;;;;;5118271;27;20090;-87
2022/09/17 05:27:07;;;;;;;11.63;1.85;;;12.80;99.90;;;;;;5118283;27;20046;-87
2022/09/17 05:29:32;;;;;;;8.40;1.38;;;12.80;99.90;;;;;;5136706;27;20046;-89
2022/09/17 05:31:58;;;;;;;12.23;1.25;;;12.70;99.90;;;;;;5117929;27;20468;-88
2022/09/17 05:34:27;;;;;;;11.70;1.52;;;12.70;99.90;;;;;;5117898;27;20431;-88
2022/09/17 05:36:53;;;;;;;6.43;1.25;;;12.70;99.90;;;;;;5117842;27;20505;-88
2022/09/17 05:39:21;;;;;;;10.90;1.70;;;12.80;99.90;;;;;;5117738;27;20054;-85
2022/09/17 05:41:47;;;;;;;9.65;1.25;;;12.80;99.90;;;;;;5136002;27;20126;-85
2022/09/17 05:44:12;;;;;;;6.97;0.98;;;12.80;99.90;;;;;;5118246;27;20126;-87
2022/09/17 05:46:38;;;;;;;14.05;2.63;;;12.90;99.90;;;;;;5117704;27;20473;-87
2022/09/17 05:49:04;;;;;;;10.90;2.25;;;12.90;99.90;;;;;;5136082;27;20057;-86
2022/09/17 05:51:30;;;;;;;10.30;1.15;;;13.00;99.90;;;;;;5117339;27;20087;-87
2022/09/17 05:53:56;;;;;;;13.23;1.55;;;12.90;99.90;;;;;;5117616;27;20134;-88
2022/09/17 05:56:22;;;;;;;6.35;0.60;;;12.70;99.90;;;;;;5117445;27;20122;-87
2022/09/17 05:58:55;;;;;;;3.75;0.45;;;12.50;99.90;;;;;;5117419;27;20122;-89
2022/09/17 06:01:21;;;;;;;2.40;0.50;;;12.50;99.90;;;;;;5117454;27;20047;-85
2022/09/17 06:03:47;;;;;;;8.13;0.85;;;12.50;99.90;;;;;;5117532;27;20489;-86
2022/09/17 06:06:13;;;;;;;7.75;1.00;;;12.50;99.90;;;;;;5117435;27;20072;-90
2022/09/17 06:08:38;;;;;;;6.00;0.95;;;12.60;99.90;;;;;;5117279;27;20386;-85
2022/09/17 06:11:05;;;;;;;12.93;2.80;;;12.60;99.90;;;;;;5117378;27;20050;-85
2022/09/17 06:13:32;;;;;;;6.82;1.08;;;12.70;99.90;;;;;;5135679;27;20062;-86
2022/09/17 06:15:58;;;;;;;10.50;1.27;;;12.80;99.90;;;;;;5135557;27;20402;-84
2022/09/17 06:18:31;;;;;;;11.70;1.77;;;12.80;99.90;;;;;;5117248;27;20043;-84
2022/09/17 06:21:04;;;;;;;8.57;0.70;;;12.70;99.90;;;;;;5116817;27;20124;-81
2022/09/17 06:23:36;;;;;;;13.50;1.73;;;12.60;99.90;;;;;;5117229;27;20061;-88
2022/09/17 06:26:03;;;;;;;13.30;1.25;;;12.40;99.90;;;;;;5134333;27;20046;-84
2022/09/17 06:28:29;;;;;;;6.28;1.02;;;12.40;99.90;;;;;;5116920;27;20055;-84
2022/09/17 06:30:59;;;;;;;13.27;1.10;;;12.40;99.90;;;;;;5116780;27;20505;-84
2022/09/17 06:33:25;;;;;;;11.70;2.22;;;12.30;99.90;;;;;;5116861;27;20075;-86
2022/09/17 06:36:17;;;;;;;10.52;1.40;;;12.40;99.90;;;;;;5116390;27;20530;-85
2022/09/17 06:38:44;;;;;;;8.52;1.10;;;12.60;99.90;;;;;;5111827;27;20047;-86
2022/09/17 06:41:11;;;;;;;9.80;1.02;;;12.70;99.90;;;;;;5116430;27;20039;-85
2022/09/17 06:43:37;;;;;;;8.95;1.40;;;12.90;99.90;;;;;;5116429;27;20039;-86
2022/09/17 06:46:05;;;;;;;10.65;1.30;;;13.00;99.90;;;;;;5116248;27;20043;-85
2022/09/17 06:48:33;;;;;;;6.75;1.30;;;13.10;99.90;;;;;;5134651;27;20512;-86
2022/09/17 06:51:04;;;;;;;8.85;1.85;;;13.30;99.90;;;;;;5116403;27;20047;-83
2022/09/17 06:53:30;;;;;;;7.55;1.10;;;13.20;99.90;;;;;;5115727;27;20104;-84
2022/09/17 06:55:58;;;;;;;4.45;0.68;;;13.20;99.90;;;;;;5116334;27;20130;-88
2022/09/17 06:58:24;;;;;;;5.43;0.73;;;13.20;99.90;;;;;;5116078;27;20039;-91
2022/09/17 07:00:50;;;;;;;6.82;1.42;;;13.20;99.90;;;;;;5116051;28;20031;-86
2022/09/17 07:03:16;;;;;;;12.65;1.30;;;13.20;99.90;;;;;;5116105;27;20039;-86
2022/09/17 07:05:43;;;;;;;12.07;2.20;;;13.20;99.90;;;;;;5134137;27;20039;-85
2022/09/17 07:08:09;;;;;;;8.98;1.20;;;13.30;99.90;;;;;;5115978;27;20055;-85
2022/09/17 07:10:36;;;;;;;13.88;1.63;;;13.20;99.90;;;;;;5116269;27;20039;-83
2022/09/17 07:13:02;;;;;;;7.55;0.85;;;13.20;99.90;;;;;;5116067;27;20065;-82
2022/09/17 07:15:29;;;;;;;8.00;0.80;;;13.20;99.90;;;;;;5115928;28;20047;-81
2022/09/17 07:17:54;;;;;;;8.68;1.38;;;13.20;99.90;;;;;;5116005;28;20069;-83
2022/09/17 07:20:20;;;;;;;8.02;1.00;;;13.40;99.90;;;;;;5115711;28;20047;-82
2022/09/17 07:22:55;;;;;;;7.70;0.80;;;13.50;99.90;;;;;;5115760;28;20050;-85
2022/09/17 07:25:20;;;;;;;8.57;1.40;;;13.70;99.90;;;;;;5115862;28;20084;-84
2022/09/17 07:27:46;;;;;;;10.32;1.60;;;13.80;99.90;;;;;;5115720;28;20082;-86
2022/09/17 07:30:12;;;;;;;8.02;0.80;;;14.00;99.90;;;;;;5116076;28;20043;-85
2022/09/17 07:32:38;;;;;;;7.07;1.05;;;14.00;99.90;;;;;;5115986;28;20085;-82
2022/09/17 07:35:04;;;;;;;12.90;1.60;;;14.10;99.90;;;;;;5116085;28;20075;-83
2022/09/17 07:37:29;;;;;;;10.60;0.90;;;14.10;99.90;;;;;;5115945;28;20054;-82
2022/09/17 07:39:57;;;;;;;10.35;1.50;;;13.90;99.90;;;;;;5115751;28;20035;-86
2022/09/17 07:42:23;;;;;;;12.05;1.40;;;13.90;99.90;;;;;;5115647;28;20043;-84
2022/09/17 07:44:48;;;;;;;14.25;1.10;;;13.90;99.90;;;;;;5115975;28;20034;-84
2022/09/17 07:47:14;;;;;;;11.48;2.03;;;13.90;99.90;;;;;;5115499;28;20047;-82
2022/09/17 07:49:39;;;;;;;10.35;1.50;;;14.00;99.90;;;;;;5115799;28;20125;-82
2022/09/17 07:52:05;;;;;;;9.85;1.17;;;13.90;99.90;;;;;;5125054;28;20444;-83
2022/09/17 07:54:32;;;;;;;6.40;1.10;;;13.70;99.90;;;;;;5115639;28;20055;-84
2022/09/17 07:56:58;;;;;;;3.08;0.40;;;13.70;99.90;;;;;;5115844;28;20126;-87
2022/09/17 07:59:24;;;;;;;2.95;0.52;;;13.60;99.90;;;;;;5133907;28;20042;-83
2022/09/17 08:01:56;;;;;;;7.80;1.15;;;13.70;99.90;;;;;;5115499;28;20043;-86
2022/09/17 08:04:22;;;;;;;8.25;1.30;;;13.80;99.90;;;;;;5128572;27;20121;-83
2022/09/17 08:06:50;;;;;;;10.73;2.05;;;14.00;99.90;;;;;;5135597;27;20518;-82
2022/09/17 08:09:17;;;;;;;10.25;1.90;;;14.00;99.90;;;;;;5157383;27;20099;-80
2022/09/17 08:11:43;;;;;;;12.07;2.63;;;14.00;99.90;;;;;;5138652;27;20145;-81
2022/09/17 08:14:11;;;;;;;8.93;2.67;;;13.90;99.90;;;;;;5135437;27;20039;-82
2022/09/17 08:16:37;;;;;;;8.60;1.92;;;14.00;99.90;;;;;;5136296;27;20043;-84
2022/09/17 08:19:03;;;;;;;6.70;1.13;;;14.10;99.90;;;;;;5119413;27;20035;-82
2022/09/17 08:21:29;;;;;;;16.00;1.92;;;14.30;99.90;;;;;;5119430;27;20394;-81
2022/09/17 08:23:54;;;;;;;10.18;1.90;;;14.40;99.90;;;;;;5118983;27;20500;-81
2022/09/17 08:26:22;;;;;;;13.52;2.08;;;14.30;99.90;;;;;;5119291;27;20054;-82
2022/09/17 08:28:51;;;;;;;9.38;2.03;;;13.90;99.90;;;;;;5136376;27;20050;-85
2022/09/17 08:31:18;;;;;;;10.35;2.00;;;13.50;99.90;;;;;;5136064;27;20040;-80
2022/09/17 08:33:45;;;;;;;14.75;3.47;;;13.40;99.90;;;;;;5136228;27;20043;-82
2022/09/17 08:36:12;;;;;;;15.60;4.50;;;13.40;99.90;;;;;;5135899;27;20489;-80
2022/09/17 08:38:39;;;;;;;10.57;2.55;;;13.40;99.90;;;;;;5135975;27;20050;-80
2022/09/17 08:41:39;;;;;;;10.77;2.47;;;13.40;99.90;;;;;;5136124;27;20047;-82
2022/09/17 08:44:13;;;;;;;13.02;1.92;;;13.60;99.90;;;;;;5118566;27;20047;-82
2022/09/17 08:46:47;;;;;;;10.52;1.60;;;13.60;99.90;;;;;;5118711;27;20039;-82
2022/09/17 08:49:33;;;;;;;11.70;1.67;;;13.70;99.90;;;;;;5117927;27;20051;-85
2022/09/17 08:52:20;;;;;;;7.68;1.10;;;13.60;99.90;;;;;;5139585;27;20043;-82
2022/09/17 08:55:10;;;;;;;5.32;0.93;;;13.60;99.90;;;;;;5118519;27;20061;-83
2022/09/17 08:57:51;;;;;;;7.03;1.13;;;13.70;99.90;;;;;;5118579;27;20046;-81
2022/09/17 09:00:19;;;;;;;8.98;1.20;;;13.80;99.90;;;;;;5118519;27;20435;-88
2022/09/17 09:03:23;;;;;;;13.50;2.25;;;14.00;99.90;;;;;;5128199;27;20409;-85
2022/09/17 09:05:53;;;;;;;16.92;2.50;;;14.10;99.90;;;;;;5134093;27;20078;-83
2022/09/17 09:08:34;;;;;;;8.75;1.67;;;14.00;99.90;;;;;;5138333;27;20134;-81
2022/09/17 09:11:21;;;;;;;9.38;1.52;;;13.80;99.90;;;;;;5138741;27;20038;-82
2022/09/17 09:13:53;;;;;;;15.27;1.90;;;13.70;99.90;;;;;;5138989;27;20067;-86
2022/09/17 09:16:31;;;;;;;7.80;1.15;;;13.80;99.90;;;;;;5138076;27;20371;-82
2022/09/17 09:19:19;;;;;;;14.48;1.60;;;13.80;99.90;;;;;;5138549;27;20069;-80
2022/09/17 09:21:54;;;;;;;9.77;1.73;;;13.80;99.90;;;;;;5138793;27;20035;-83
2022/09/17 09:24:25;;;;;;;10.35;2.70;;;14.00;99.90;;;;;;5138419;27;20106;-80
2022/09/17 09:27:15;;;;;;;10.30;1.50;;;14.20;99.90;;;;;;5137083;27;20085;-83
2022/09/17 09:30:03;;;;;;;8.38;1.35;;;14.50;99.90;;;;;;5138471;27;20091;-83
2022/09/17 09:32:57;;;;;;;13.40;1.63;;;14.60;99.90;;;;;;5138291;27;20552;-83
2022/09/17 09:35:30;;;;;;;10.25;2.08;;;14.60;99.90;;;;;;5138681;27;20031;-80
2022/09/17 09:38:08;;;;;;;6.28;1.38;;;14.70;99.90;;;;;;5138489;27;20058;-81
2022/09/17 09:40:38;;;;;;;11.65;1.75;;;14.90;99.90;;;;;;5138540;27;20090;-82
2022/09/17 09:43:21;;;;;;;11.35;1.67;;;15.10;99.90;;;;;;5138476;27;20404;-83
2022/09/17 09:46:21;;;;;;;10.25;2.42;;;15.30;99.90;;;;;;5138325;27;20389;-83
2022/09/17 09:49:15;;;;;;;14.23;1.88;;;15.40;99.90;;;;;;5099789;27;20053;-82
2022/09/17 14:19:50;;;;;;;10.38;1.10;;;15.60;99.90;;;;;;4735796;30;20067;-83
2022/09/17 15:50:57;;;;;;;10.63;1.20;;;15.70;99.90;;;;;;4715556;30;20045;-84
2022/09/17 15:53:29;;;;;;;7.05;1.05;;;15.60;99.90;;;;;;4716170;30;20060;-86
2022/09/17 15:56:00;;;;;;;7.13;0.80;;;15.50;99.90;;;;;;4716577;30;20060;-84
2022/09/17 15:59:00;;;;;;;4.72;0.98;;;15.40;99.90;;;;;;4716298;30;20092;-85
2022/09/17 16:01:29;;;;;;;5.28;1.25;;;15.40;99.90;;;;;;4713982;30;20064;-89
2022/09/17 16:04:00;;;;;;;8.18;0.93;;;15.40;99.90;;;;;;4716323;30;20057;-84
2022/09/17 16:06:26;;;;;;;5.93;1.27;;;15.40;99.90;;;;;;4717419;30;20061;-91
2022/09/17 16:09:15;;;;;;;3.72;0.60;;;15.40;99.90;;;;;;4716222;30;20057;-86
2022/09/17 16:11:42;;;;;;;3.05;0.75;;;15.30;99.90;;;;;;4716851;30;20049;-84
2022/09/17 16:14:08;;;;;;;7.68;1.13;;;15.20;99.90;;;;;;4717334;30;20057;-85
2022/09/17 16:16:36;;;;;;;5.57;0.60;;;15.20;99.90;;;;;;4716121;30;20060;-85
2022/09/17 16:19:04;;;;;;;3.75;0.63;;;15.20;99.90;;;;;;4716218;30;20065;-89
2022/09/17 16:21:30;;;;;;;6.53;0.65;;;15.00;99.90;;;;;;4716088;30;20506;-82
2022/09/17 16:24:05;;;;;;;8.63;1.00;;;15.00;99.90;;;;;;4716295;30;20056;-89
2022/09/17 16:26:39;;;;;;;10.07;1.10;;;15.10;99.90;;;;;;4718311;30;20391;-83
2022/09/17 16:29:11;;;;;;;10.02;1.77;;;15.10;99.90;;;;;;4719401;30;20053;-86
2022/09/17 16:31:37;;;;;;;5.80;0.88;;;15.00;99.90;;;;;;4720519;30;20473;-88
2022/09/17 16:34:03;;;;;;;9.57;1.20;;;14.90;99.90;;;;;;4720210;30;20131;-86
2022/09/17 16:36:30;;;;;;;10.25;1.55;;;14.80;99.90;;;;;;4719019;30;20057;-84
2022/09/17 16:38:56;;;;;;;10.85;1.70;;;14.60;99.90;;;;;;4719381;30;20053;-87
2022/09/17 16:41:22;;;;;;;9.80;1.08;;;14.60;99.90;;;;;;4718885;30;20119;-86
2022/09/17 16:43:48;;;;;;;7.53;1.00;;;14.60;99.90;;;;;;4720123;30;20049;-86
2022/09/17 16:46:14;;;;;;;6.38;0.80;;;14.60;99.90;;;;;;4719057;30;20065;-87
2022/09/17 16:48:45;;;;;;;7.55;0.80;;;14.70;99.90;;;;;;4719752;30;20080;-85
2022/09/17 16:51:11;;;;;;;7.20;1.30;;;14.70;99.90;;;;;;4719827;30;20417;-86
2022/09/17 16:53:38;;;;;;;4.47;0.80;;;14.70;99.90;;;;;;4718737;30;20069;-86
2022/09/17 16:56:12;;;;;;;6.88;2.47;;;14.70;99.90;;;;;;4718743;30;20053;-84
2022/09/17 16:58:39;;;;;;;6.40;1.05;;;14.60;99.90;;;;;;4718627;30;20061;-86
2022/09/17 17:01:13;;;;;;;9.75;1.13;;;14.60;99.90;;;;;;4718867;30;20068;-85
2022/09/17 17:03:39;;;;;;;9.48;1.38;;;14.60;99.90;;;;;;4718575;30;20057;-84
2022/09/17 17:06:05;;;;;;;6.35;1.17;;;14.60;99.90;;;;;;4718854;30;20049;-91
2022/09/17 17:08:32;;;;;;;11.00;1.30;;;14.70;99.90;;;;;;4718414;30;20057;-84
2022/09/17 17:10:58;;;;;;;10.35;2.30;;;14.60;99.90;;;;;;4718449;30;20060;-84
2022/09/17 17:13:24;;;;;;;12.07;1.63;;;14.40;99.90;;;;;;4718271;30;20417;-84
2022/09/17 17:15:50;;;;;;;6.22;1.10;;;14.30;99.90;;;;;;4718400;30;20053;-87
2022/09/17 17:18:19;;;;;;;9.65;1.85;;;14.20;99.90;;;;;;4718275;30;20045;-84
2022/09/17 17:20:46;;;;;;;13.00;1.52;;;14.20;99.90;;;;;;4718194;30;20072;-85
2022/09/17 17:23:12;;;;;;;6.40;1.20;;;14.10;99.90;;;;;;4718401;30;20060;-87
2022/09/17 17:25:38;;;;;;;8.52;1.98;;;14.10;99.90;;;;;;4718086;30;20057;-86
2022/09/17 17:28:03;;;;;;;16.13;1.90;;;14.10;99.90;;;;;;4718079;30;20057;-84
2022/09/17 17:30:29;;;;;;;17.13;1.90;;;14.20;99.90;;;;;;4718059;30;20059;-84
2022/09/17 17:32:54;;;;;;;11.20;2.13;;;14.10;99.90;;;;;;4719118;30;20048;-86
2022/09/17 17:35:20;;;;;;;6.88;1.02;;;14.00;99.90;;;;;;4718236;30;20052;-83
2022/09/17 17:37:47;;;;;;;6.38;1.10;;;14.00;99.90;;;;;;4717970;30;20147;-85
2022/09/17 17:40:12;;;;;;;14.13;1.70;;;13.80;99.90;;;;;;4717886;30;20507;-85
2022/09/17 17:42:42;;;;;;;10.75;1.30;;;13.80;99.90;;;;;;4717940;30;20095;-85
2022/09/17 17:45:08;;;;;;;8.27;1.08;;;13.80;99.90;;;;;;4717894;30;20422;-86
2022/09/17 17:47:35;;;;;;;9.88;1.08;;;13.70;99.90;;;;;;4717859;30;20132;-86
2022/09/17 17:50:01;;;;;;;5.93;1.45;;;13.70;99.90;;;;;;4717588;30;20154;-86
2022/09/17 17:52:27;;;;;;;9.00;1.08;;;13.70;99.90;;;;;;4717720;30;20474;-91
2022/09/17 17:54:52;;;;;;;6.03;1.02;;;13.60;99.90;;;;;;4717857;30;20568;-84
2022/09/17 17:57:21;;;;;;;4.97;0.63;;;13.70;99.90;;;;;;4719097;30;20056;-83
2022/09/17 17:59:46;;;;;;;10.27;1.35;;;13.70;99.90;;;;;;4717751;30;20056;-86
2022/09/17 18:02:12;;;;;;;10.73;0.98;;;13.70;99.90;;;;;;4718792;30;20045;-87
2022/09/17 18:04:38;;;;;;;7.97;1.20;;;13.70;99.90;;;;;;4718927;30;20060;-85
2022/09/17 18:07:03;;;;;;;11.10;1.40;;;13.70;99.90;;;;;;4717718;30;20057;-85
2022/09/17 18:09:29;;;;;;;9.02;2.05;;;13.70;99.90;;;;;;4718944;30;20138;-87
2022/09/17 18:11:55;;;;;;;21.33;3.10;;;13.80;99.90;;;;;;4718738;30;20376;-88
2022/09/17 18:14:23;;;;;;;10.98;1.67;;;13.70;99.90;;;;;;4717788;30;20057;-81
2022/09/17 18:16:49;;;;;;;11.55;1.52;;;13.60;99.90;;;;;;4717545;30;20049;-84
2022/09/17 18:19:14;;;;;;;7.65;1.33;;;13.50;99.90;;;;;;4717565;30;20060;-85
2022/09/17 18:21:40;;;;;;;9.60;1.23;;;13.40;99.90;;;;;;4717486;30;20056;-84
2022/09/17 18:24:06;;;;;;;9.93;1.85;;;13.40;99.90;;;;;;4718023;30;20092;-84
2022/09/17 18:26:33;;;;;;;11.63;1.45;;;13.40;99.90;;;;;;4717289;30;20398;-84
2022/09/17 18:28:59;;;;;;;5.72;0.95;;;13.40;99.90;;;;;;4718565;30;20112;-89
2022/09/17 18:31:30;;;;;;;13.90;1.40;;;13.40;99.90;;;;;;4717420;30;20067;-85
2022/09/17 18:34:02;;;;;;;9.48;1.30;;;13.30;99.90;;;;;;4717382;30;20060;-87
2022/09/17 18:36:31;;;;;;;14.33;2.27;;;13.30;99.90;;;;;;4717401;30;20057;-84
2022/09/17 18:39:01;;;;;;;9.30;1.58;;;13.30;99.90;;;;;;4717339;30;20057;-84
2022/09/17 18:41:32;;;;;;;14.40;1.98;;;13.20;99.90;;;;;;4718334;30;20055;-89
2022/09/17 18:44:01;;;;;;;8.55;1.67;;;13.30;99.90;;;;;;4717724;30;20103;-87
2022/09/17 18:46:33;;;;;;;7.45;1.55;;;13.30;99.90;;;;;;4716967;30;20053;-85
2022/09/17 18:48:59;;;;;;;12.63;1.60;;;13.30;99.90;;;;;;4716566;30;20519;-87
2022/09/17 18:51:26;;;;;;;11.07;1.58;;;13.20;99.90;;;;;;4716989;30;20064;-86
2022/09/17 18:53:53;;;;;;;13.50;1.92;;;13.20;99.90;;;;;;4717003;30;20064;-87